createdAt,value
2022-10-03T00:03:43.940Z,0.13
2022-10-03T00:14:21.578Z,0.10
2022-10-03T00:24:57.647Z,0.20
2022-10-03T00:35:02.881Z,0.10
2022-10-03T00:45:55.896Z,0.17
2022-10-03T00:56:07.925Z,0.10
2022-10-03T01:06:16.657Z,0.20
2022-10-03T01:16:59.377Z,0.40
2022-10-03T01:27:11.110Z,0.52
2022-10-03T01:37:44.211Z,0.77
2022-10-03T01:47:51.910Z,0.85
2022-10-03T01:58:23.287Z,1.00
2022-10-03T02:08:25.494Z,1.48
2022-10-03T02:18:52.992Z,2.83
2022-10-03T02:29:09.090Z,3.12
2022-10-03T02:39:33.838Z,3.00
2022-10-03T02:49:58.400Z,3.08
2022-10-03T03:00:09.791Z,3.30
2022-10-03T03:10:28.224Z,3.28
2022-10-03T03:20:33.794Z,2.90
2022-10-03T03:30:48.859Z,3.12
2022-10-03T03:41:45.588Z,2.80
2022-10-03T03:52:06.570Z,2.80
2022-10-03T04:02:15.455Z,2.95
2022-10-03T04:12:32.473Z,2.40
2022-10-03T04:22:35.452Z,2.70
2022-10-03T04:33:04.747Z,3.03
2022-10-03T04:43:16.141Z,3.70
2022-10-03T04:53:34.891Z,4.65
2022-10-03T05:03:58.879Z,4.32
2022-10-03T05:14:28.538Z,5.90
2022-10-03T05:24:39.780Z,5.40
2022-10-03T05:35:06.736Z,6.40
2022-10-03T05:45:29.714Z,4.60
2022-10-03T05:55:37.998Z,6.28
2022-10-03T06:06:01.748Z,6.62
2022-10-03T06:16:30.731Z,6.75
2022-10-03T06:26:51.031Z,8.30
2022-10-03T06:37:13.037Z,10.40
2022-10-03T06:48:03.377Z,9.20
2022-10-03T06:58:35.404Z,9.52
2022-10-03T07:08:45.817Z,10.52
2022-10-03T07:18:55.383Z,9.07
2022-10-03T07:29:09.856Z,9.30
2022-10-03T07:39:57.288Z,8.60
2022-10-03T07:50:23.534Z,7.12
2022-10-03T08:00:30.212Z,7.32
2022-10-03T08:10:36.210Z,7.15
2022-10-03T08:20:55.666Z,7.07
2022-10-03T08:31:09.995Z,6.85
2022-10-03T08:41:41.114Z,7.67
2022-10-03T08:52:14.693Z,6.95
2022-10-03T09:02:40.363Z,7.25
2022-10-03T09:13:12.959Z,5.68
2022-10-03T09:23:18.669Z,5.22
2022-10-03T09:34:00.026Z,4.45
2022-10-03T09:44:34.836Z,5.25
2022-10-03T09:54:44.468Z,4.50
2022-10-03T10:05:00.251Z,4.18
2022-10-03T10:15:21.458Z,4.03
2022-10-03T10:25:50.565Z,3.15
2022-10-03T10:36:30.764Z,2.90
2022-10-03T10:47:18.694Z,2.67
2022-10-03T10:58:01.811Z,3.55
2022-10-03T11:08:14.045Z,3.20
2022-10-03T11:18:44.377Z,3.20
2022-10-03T11:29:17.724Z,3.58
2022-10-03T11:39:35.626Z,5.40
2022-10-03T11:50:07.031Z,4.62
2022-10-03T12:00:23.486Z,2.90
2022-10-03T12:10:56.497Z,4.10
2022-10-03T12:21:17.347Z,3.22
2022-10-03T12:31:36.656Z,2.25
2022-10-03T12:41:51.240Z,1.98
2022-10-03T12:52:01.077Z,1.90
2022-10-03T13:02:20.378Z,1.20
2022-10-03T13:12:39.759Z,1.58
2022-10-03T13:22:57.292Z,1.10
2022-10-03T13:33:18.804Z,1.05
2022-10-03T13:43:28.689Z,0.82
2022-10-03T13:54:07.628Z,0.90
2022-10-03T14:04:38.131Z,0.90
2022-10-03T14:15:02.404Z,0.88
2022-10-03T14:25:26.883Z,0.80
2022-10-03T14:36:01.966Z,0.87
2022-10-03T14:46:07.077Z,0.93
2022-10-03T14:56:13.634Z,0.68
2022-10-03T15:06:36.129Z,0.80
2022-10-03T15:16:50.099Z,0.75
2022-10-03T15:27:02.206Z,0.70
2022-10-03T15:37:24.761Z,0.70
2022-10-03T15:47:29.998Z,0.70
2022-10-03T15:57:37.286Z,0.90
2022-10-03T16:07:52.135Z,0.80
2022-10-03T16:18:06.248Z,0.70
2022-10-03T16:28:14.812Z,0.80
2022-10-03T16:38:27.149Z,0.82
2022-10-03T16:48:51.917Z,0.90
2022-10-03T16:58:59.049Z,1.05
2022-10-03T17:09:16.728Z,0.90
2022-10-03T17:19:44.843Z,1.40
2022-10-03T17:30:02.514Z,1.50
2022-10-03T17:40:17.035Z,2.08
2022-10-03T17:50:54.548Z,1.55
2022-10-03T18:01:07.148Z,1.40
2022-10-03T18:11:10.729Z,1.42
2022-10-03T18:21:47.017Z,1.52
2022-10-03T18:31:57.837Z,1.70
2022-10-03T18:42:02.724Z,2.33
2022-10-03T19:02:20.507Z,2.53
2022-10-03T19:12:24.211Z,2.50
2022-10-03T19:22:55.534Z,2.10
2022-10-03T19:33:08.874Z,2.50
2022-10-03T19:43:36.472Z,3.17
2022-10-03T19:53:43.941Z,3.10
2022-10-03T20:03:52.995Z,2.30
2022-10-03T20:14:29.453Z,4.00
2022-10-03T20:24:41.507Z,4.37
2022-10-03T20:34:53.137Z,3.30
2022-10-03T20:45:14.655Z,3.13
2022-10-03T20:55:25.952Z,3.30
2022-10-03T21:05:34.799Z,3.50
2022-10-03T21:15:47.829Z,2.67
2022-10-03T21:25:54.790Z,3.43
2022-10-03T21:36:09.637Z,4.17
2022-10-03T21:46:17.451Z,4.05
2022-10-03T21:56:48.774Z,3.07
2022-10-03T22:07:09.714Z,3.13
2022-10-03T22:17:30.701Z,2.57
2022-10-03T22:27:52.039Z,2.50
2022-10-03T22:37:56.507Z,3.00
2022-10-03T22:48:05.207Z,3.43
2022-10-03T22:58:08.806Z,3.27
2022-10-03T23:08:17.020Z,3.77
2022-10-03T23:18:28.421Z,3.60
2022-10-03T23:28:46.128Z,3.27
2022-10-03T23:38:48.465Z,4.10
2022-10-03T23:49:02.369Z,3.53
2022-10-03T23:59:05.235Z,3.37
